sensor_id;sensor_type;location;lat;lon;timestamp;pressure;altitude;pressure_sealevel;temperature;humidity
74544;BME280;63016;55.030;38.710;2022-09-09T00:02:24;100581.25;;;8.45;63.92
74544;BME280;63016;55.030;38.710;2022-09-09T00:05:20;100593.44;;;8.45;63.10
74544;BME280;63016;55.030;38.710;2022-09-09T00:07:53;100584.13;;;8.42;63.24
74544;BME280;63016;55.030;38.710;2022-09-09T00:16:02;100598.34;;;8.38;62.73
74544;BME280;63016;55.030;38.710;2022-09-09T00:21:29;100596.25;;;8.32;63.28
74544;BME280;63016;55.030;38.710;2022-09-09T00:23:57;100604.06;;;8.32;63.91
74544;BME280;63016;55.030;38.710;2022-09-09T00:29:37;100598.31;;;8.29;63.29
74544;BME280;63016;55.030;38.710;2022-09-09T00:32:16;100608.84;;;8.27;63.00
74544;BME280;63016;55.030;38.710;2022-09-09T00:37:15;100607.84;;;8.18;63.52
74544;BME280;63016;55.030;38.710;2022-09-09T00:39:44;100613.16;;;8.17;63.54
74544;BME280;63016;55.030;38.710;2022-09-09T00:42:17;100615.91;;;8.15;63.44
74544;BME280;63016;55.030;38.710;2022-09-09T00:53:52;100635.59;;;8.08;62.84
74544;BME280;63016;55.030;38.710;2022-09-09T00:56:26;100636.81;;;8.04;63.43
74544;BME280;63016;55.030;38.710;2022-09-09T01:01:37;100635.56;;;7.98;64.11
74544;BME280;63016;55.030;38.710;2022-09-09T01:04:11;100637.34;;;7.98;63.59
74544;BME280;63016;55.030;38.710;2022-09-09T01:06:41;100641.97;;;7.94;64.08
74544;BME280;63016;55.030;38.710;2022-09-09T01:09:22;100637.72;;;7.93;63.58
74544;BME280;63016;55.030;38.710;2022-09-09T01:17:17;100645.53;;;7.93;63.12
74544;BME280;63016;55.030;38.710;2022-09-09T01:28:11;100660.69;;;7.88;63.70
74544;BME280;63016;55.030;38.710;2022-09-09T01:30:40;100661.59;;;7.87;63.68
74544;BME280;63016;55.030;38.710;2022-09-09T01:33:10;100667.75;;;7.86;64.20
74544;BME280;63016;55.030;38.710;2022-09-09T01:38:26;100670.63;;;7.83;64.02
74544;BME280;63016;55.030;38.710;2022-09-09T01:40:52;100667.91;;;7.85;63.79
74544;BME280;63016;55.030;38.710;2022-09-09T01:43:22;100673.91;;;7.85;64.00
74544;BME280;63016;55.030;38.710;2022-09-09T01:45:52;100666.38;;;7.82;64.08
74544;BME280;63016;55.030;38.710;2022-09-09T01:48:20;100678.53;;;7.82;63.49
74544;BME280;63016;55.030;38.710;2022-09-09T01:50:46;100668.41;;;7.79;64.18
74544;BME280;63016;55.030;38.710;2022-09-09T01:53:12;100669.34;;;7.78;64.17
74544;BME280;63016;55.030;38.710;2022-09-09T01:55:40;100682.47;;;7.76;64.19
74544;BME280;63016;55.030;38.710;2022-09-09T01:58:31;100683.88;;;7.80;63.88
74544;BME280;63016;55.030;38.710;2022-09-09T02:01:15;100681.94;;;7.82;63.41
74544;BME280;63016;55.030;38.710;2022-09-09T02:03:48;100679.50;;;7.81;63.94
74544;BME280;63016;55.030;38.710;2022-09-09T02:06:27;100677.72;;;7.81;64.15
74544;BME280;63016;55.030;38.710;2022-09-09T02:08:57;100686.31;;;7.82;64.65
74544;BME280;63016;55.030;38.710;2022-09-09T02:11:28;100694.94;;;7.82;63.80
74544;BME280;63016;55.030;38.710;2022-09-09T02:14:00;100685.66;;;7.80;63.89
74544;BME280;63016;55.030;38.710;2022-09-09T02:16:47;100695.09;;;7.81;63.71
74544;BME280;63016;55.030;38.710;2022-09-09T02:19:27;100700.41;;;7.79;63.68
74544;BME280;63016;55.030;38.710;2022-09-09T02:21:57;100693.44;;;7.80;64.02
74544;BME280;63016;55.030;38.710;2022-09-09T02:24:25;100702.06;;;7.80;63.68
74544;BME280;63016;55.030;38.710;2022-09-09T02:26:53;100696.84;;;7.80;64.04
74544;BME280;63016;55.030;38.710;2022-09-09T02:29:33;100697.53;;;7.82;64.30
74544;BME280;63016;55.030;38.710;2022-09-09T02:32:02;100706.16;;;7.83;64.06
74544;BME280;63016;55.030;38.710;2022-09-09T02:34:32;100698.50;;;7.81;64.08
74544;BME280;63016;55.030;38.710;2022-09-09T02:37:03;100708.88;;;7.81;64.27
74544;BME280;63016;55.030;38.710;2022-09-09T02:39:29;100700.13;;;7.82;64.19
74544;BME280;63016;55.030;38.710;2022-09-09T02:41:55;100700.28;;;7.81;64.06
74544;BME280;63016;55.030;38.710;2022-09-09T02:44:20;100709.72;;;7.82;64.31
74544;BME280;63016;55.030;38.710;2022-09-09T02:52:08;100711.34;;;7.83;64.26
74544;BME280;63016;55.030;38.710;2022-09-09T02:54:41;100715.72;;;7.82;63.91
74544;BME280;63016;55.030;38.710;2022-09-09T02:57:19;100718.22;;;7.84;64.53
74544;BME280;63016;55.030;38.710;2022-09-09T02:59:46;100718.31;;;7.82;63.65
74544;BME280;63016;55.030;38.710;2022-09-09T03:02:12;100722.59;;;7.83;64.14
74544;BME280;63016;55.030;38.710;2022-09-09T03:04:39;100718.22;;;7.84;64.81
74544;BME280;63016;55.030;38.710;2022-09-09T03:07:05;100723.28;;;7.85;63.73
74544;BME280;63016;55.030;38.710;2022-09-09T03:09:31;100719.84;;;7.85;64.03
74544;BME280;63016;55.030;38.710;2022-09-09T03:11:58;100723.41;;;7.84;64.33
74544;BME280;63016;55.030;38.710;2022-09-09T03:14:23;100727.78;;;7.83;63.84
74544;BME280;63016;55.030;38.710;2022-09-09T03:16:52;100727.91;;;7.82;64.51
74544;BME280;63016;55.030;38.710;2022-09-09T03:19:18;100735.69;;;7.82;64.26
74544;BME280;63016;55.030;38.710;2022-09-09T03:21:47;100738.19;;;7.83;63.96
74544;BME280;63016;55.030;38.710;2022-09-09T03:24:13;100740.78;;;7.83;63.86
74544;BME280;63016;55.030;38.710;2022-09-09T03:26:39;100736.50;;;7.82;64.22
74544;BME280;63016;55.030;38.710;2022-09-09T03:29:06;100736.50;;;7.82;64.56
74544;BME280;63016;55.030;38.710;2022-09-09T03:31:32;100747.72;;;7.83;64.49
74544;BME280;63016;55.030;38.710;2022-09-09T03:33:58;100746.78;;;7.84;64.40
74544;BME280;63016;55.030;38.710;2022-09-09T03:36:27;100745.97;;;7.83;64.55
74544;BME280;63016;55.030;38.710;2022-09-09T03:38:54;100747.47;;;7.86;64.38
74544;BME280;63016;55.030;38.710;2022-09-09T03:41:21;100755.28;;;7.86;64.21
74544;BME280;63016;55.030;38.710;2022-09-09T03:43:49;100754.59;;;7.84;64.42
74544;BME280;63016;55.030;38.710;2022-09-09T03:46:15;100760.34;;;7.87;63.90
74544;BME280;63016;55.030;38.710;2022-09-09T03:48:40;100758.56;;;7.88;64.15
74544;BME280;63016;55.030;38.710;2022-09-09T03:51:06;100764.59;;;7.88;64.00
74544;BME280;63016;55.030;38.710;2022-09-09T03:53:31;100773.22;;;7.89;64.24
74544;BME280;63016;55.030;38.710;2022-09-09T03:55:57;100769.81;;;7.88;64.93
74544;BME280;63016;55.030;38.710;2022-09-09T03:58:25;100777.59;;;7.88;64.36
74544;BME280;63016;55.030;38.710;2022-09-09T04:01:02;100778.53;;;7.87;64.51
74544;BME280;63016;55.030;38.710;2022-09-09T04:03:28;100777.47;;;7.90;64.00
74544;BME280;63016;55.030;38.710;2022-09-09T04:05:56;100784.31;;;7.91;64.94
74544;BME280;63016;55.030;38.710;2022-09-09T04:08:22;100779.81;;;7.93;63.94
74544;BME280;63016;55.030;38.710;2022-09-09T04:10:51;100785.69;;;7.95;64.63
74544;BME280;63016;55.030;38.710;2022-09-09T04:13:17;100791.59;;;7.97;64.60
74544;BME280;63016;55.030;38.710;2022-09-09T04:15:54;100784.59;;;7.97;64.75
74544;BME280;63016;55.030;38.710;2022-09-09T04:18:20;100794.91;;;7.99;64.11
74544;BME280;63016;55.030;38.710;2022-09-09T04:20:48;100796.78;;;7.97;64.13
74544;BME280;63016;55.030;38.710;2022-09-09T04:23:14;100801.06;;;7.98;63.57
74544;BME280;63016;55.030;38.710;2022-09-09T04:25:47;100802.78;;;7.97;64.27
74544;BME280;63016;55.030;38.710;2022-09-09T04:28:14;100795.00;;;7.97;64.28
74544;BME280;63016;55.030;38.710;2022-09-09T04:30:40;100793.13;;;7.99;64.61
74544;BME280;63016;55.030;38.710;2022-09-09T04:33:06;100797.34;;;8.01;64.33
74544;BME280;63016;55.030;38.710;2022-09-09T04:35:33;100788.06;;;7.98;64.33
74544;BME280;63016;55.030;38.710;2022-09-09T04:37:58;100801.59;;;8.02;63.63
74544;BME280;63016;55.030;38.710;2022-09-09T04:40:24;100805.88;;;8.03;64.26
74544;BME280;63016;55.030;38.710;2022-09-09T04:42:50;100805.00;;;8.02;63.88
74544;BME280;63016;55.030;38.710;2022-09-09T04:45:16;100799.97;;;8.01;64.06
74544;BME280;63016;55.030;38.710;2022-09-09T04:47:42;100808.72;;;7.99;63.77
74544;BME280;63016;55.030;38.710;2022-09-09T04:50:08;100810.50;;;7.99;63.79
74544;BME280;63016;55.030;38.710;2022-09-09T04:52:34;100827.72;;;8.00;64.31
74544;BME280;63016;55.030;38.710;2022-09-09T04:55:01;100815.41;;;8.02;64.26
74544;BME280;63016;55.030;38.710;2022-09-09T04:57:26;100809.28;;;8.03;63.85
74544;BME280;63016;55.030;38.710;2022-09-09T04:59:51;100812.00;;;8.02;64.37
74544;BME280;63016;55.030;38.710;2022-09-09T05:02:17;100815.78;;;7.97;64.03
74544;BME280;63016;55.030;38.710;2022-09-09T05:04:43;100819.34;;;7.96;63.94
74544;BME280;63016;55.030;38.710;2022-09-09T05:07:08;100827.97;;;7.97;64.25
74544;BME280;63016;55.030;38.710;2022-09-09T05:09:34;100826.91;;;7.99;64.12
74544;BME280;63016;55.030;38.710;2022-09-09T05:12:00;100822.38;;;8.02;64.74
74544;BME280;63016;55.030;38.710;2022-09-09T05:14:25;100829.56;;;8.09;65.02
74544;BME280;63016;55.030;38.710;2022-09-09T05:16:51;100820.88;;;8.20;65.00
74544;BME280;63016;55.030;38.710;2022-09-09T05:19:17;100829.84;;;8.27;64.83
74544;BME280;63016;55.030;38.710;2022-09-09T05:21:44;100830.00;;;8.35;64.84
74544;BME280;63016;55.030;38.710;2022-09-09T05:24:10;100831.84;;;8.44;65.45
74544;BME280;63016;55.030;38.710;2022-09-09T05:26:36;100829.16;;;8.56;65.22
74544;BME280;63016;55.030;38.710;2022-09-09T05:29:01;100839.50;;;8.67;64.13
74544;BME280;63016;55.030;38.710;2022-09-09T05:31:29;100839.66;;;8.75;64.67
74544;BME280;63016;55.030;38.710;2022-09-09T05:33:55;100836.19;;;8.86;65.09
74544;BME280;63016;55.030;38.710;2022-09-09T05:36:21;100838.00;;;8.95;64.35
74544;BME280;63016;55.030;38.710;2022-09-09T05:38:47;100847.72;;;9.02;64.76
74544;BME280;63016;55.030;38.710;2022-09-09T05:41:13;100841.59;;;9.13;64.35
74544;BME280;63016;55.030;38.710;2022-09-09T05:43:41;100848.50;;;9.24;65.23
74544;BME280;63016;55.030;38.710;2022-09-09T05:46:14;100851.78;;;9.36;64.13
74544;BME280;63016;55.030;38.710;2022-09-09T05:48:42;100854.28;;;9.47;64.38
74544;BME280;63016;55.030;38.710;2022-09-09T05:51:10;100852.78;;;9.54;63.81
74544;BME280;63016;55.030;38.710;2022-09-09T05:53:38;100852.81;;;9.64;64.43
74544;BME280;63016;55.030;38.710;2022-09-09T05:56:09;100854.59;;;9.73;64.70
74544;BME280;63016;55.030;38.710;2022-09-09T05:58:36;100847.59;;;9.83;64.33
74544;BME280;63016;55.030;38.710;2022-09-09T06:03:32;100851.84;;;10.03;63.40
74544;BME280;63016;55.030;38.710;2022-09-09T06:06:02;100854.59;;;10.12;63.99
74544;BME280;63016;55.030;38.710;2022-09-09T06:08:31;100853.88;;;10.19;64.10
74544;BME280;63016;55.030;38.710;2022-09-09T06:11:13;100861.28;;;10.34;63.53
74544;BME280;63016;55.030;38.710;2022-09-09T06:13:40;100858.97;;;10.40;63.04
74544;BME280;63016;55.030;38.710;2022-09-09T06:16:14;100862.81;;;10.46;62.86
74544;BME280;63016;55.030;38.710;2022-09-09T06:18:41;100879.00;;;10.49;62.72
74544;BME280;63016;55.030;38.710;2022-09-09T06:21:11;100860.84;;;10.58;63.25
74544;BME280;63016;55.030;38.710;2022-09-09T06:23:39;100868.63;;;10.67;63.48
74544;BME280;63016;55.030;38.710;2022-09-09T06:26:26;100882.03;;;10.82;62.89
74544;BME280;63016;55.030;38.710;2022-09-09T06:28:54;100881.34;;;10.90;62.48
74544;BME280;63016;55.030;38.710;2022-09-09T06:31:24;100885.16;;;10.95;62.72
74544;BME280;63016;55.030;38.710;2022-09-09T06:33:52;100875.38;;;10.97;62.13
74544;BME280;63016;55.030;38.710;2022-09-09T06:36:23;100883.66;;;11.02;62.24
74544;BME280;63016;55.030;38.710;2022-09-09T06:38:50;100879.09;;;11.04;61.87
74544;BME280;63016;55.030;38.710;2022-09-09T06:41:18;100877.13;;;11.06;62.04
74544;BME280;63016;55.030;38.710;2022-09-09T06:43:44;100879.84;;;11.15;62.66
74544;BME280;63016;55.030;38.710;2022-09-09T06:46:13;100882.41;;;11.24;62.62
74544;BME280;63016;55.030;38.710;2022-09-09T06:48:40;100883.34;;;11.33;61.91
74544;BME280;63016;55.030;38.710;2022-09-09T06:51:19;100890.31;;;11.42;61.87
74544;BME280;63016;55.030;38.710;2022-09-09T06:53:50;100890.00;;;11.45;61.55
74544;BME280;63016;55.030;38.710;2022-09-09T06:58:42;100898.75;;;11.54;61.88
74544;BME280;63016;55.030;38.710;2022-09-09T07:01:28;100888.84;;;11.57;61.30
74544;BME280;63016;55.030;38.710;2022-09-09T07:03:56;100890.19;;;11.62;61.00
74544;BME280;63016;55.030;38.710;2022-09-09T07:06:33;100896.78;;;11.66;61.75
74544;BME280;63016;55.030;38.710;2022-09-09T07:09:09;100892.59;;;11.73;60.82
74544;BME280;63016;55.030;38.710;2022-09-09T07:11:47;100893.66;;;11.80;60.29
74544;BME280;63016;55.030;38.710;2022-09-09T07:14:14;100899.28;;;11.85;58.88
74544;BME280;63016;55.030;38.710;2022-09-09T07:16:44;100913.69;;;11.89;60.19
74544;BME280;63016;55.030;38.710;2022-09-09T07:19:11;100912.94;;;11.97;59.68
74544;BME280;63016;55.030;38.710;2022-09-09T07:21:37;100905.91;;;11.97;59.30
74544;BME280;63016;55.030;38.710;2022-09-09T07:24:05;100916.22;;;11.99;59.55
74544;BME280;63016;55.030;38.710;2022-09-09T07:26:33;100912.78;;;11.98;59.38
74544;BME280;63016;55.030;38.710;2022-09-09T07:28:58;100916.47;;;12.05;59.55
74544;BME280;63016;55.030;38.710;2022-09-09T07:31:32;100914.06;;;12.12;59.50
74544;BME280;63016;55.030;38.710;2022-09-09T07:33:59;100908.38;;;12.17;58.96
74544;BME280;63016;55.030;38.710;2022-09-09T07:36:29;100917.28;;;12.24;59.12
74544;BME280;63016;55.030;38.710;2022-09-09T07:38:58;100918.91;;;12.25;58.46
74544;BME280;63016;55.030;38.710;2022-09-09T07:43:51;100925.13;;;12.24;58.86
74544;BME280;63016;55.030;38.710;2022-09-09T07:46:20;100932.97;;;12.24;58.90
74544;BME280;63016;55.030;38.710;2022-09-09T07:48:56;100929.06;;;12.28;58.76
74544;BME280;63016;55.030;38.710;2022-09-09T07:51:36;100926.44;;;12.28;58.59
74544;BME280;63016;55.030;38.710;2022-09-09T07:54:07;100932.06;;;12.33;58.96
74544;BME280;63016;55.030;38.710;2022-09-09T07:56:35;100922.34;;;12.43;59.09
74544;BME280;63016;55.030;38.710;2022-09-09T07:59:02;100935.00;;;12.56;58.81
74544;BME280;63016;55.030;38.710;2022-09-09T08:01:34;100929.69;;;12.66;59.02
74544;BME280;63016;55.030;38.710;2022-09-09T08:04:07;100933.34;;;12.73;59.10
74544;BME280;63016;55.030;38.710;2022-09-09T08:06:39;100933.19;;;12.74;57.96
74544;BME280;63016;55.030;38.710;2022-09-09T08:09:06;100933.13;;;12.66;57.09
74544;BME280;63016;55.030;38.710;2022-09-09T08:11:31;100929.78;;;12.56;57.71
74544;BME280;63016;55.030;38.710;2022-09-09T08:13:58;100936.16;;;12.53;58.26
74544;BME280;63016;55.030;38.710;2022-09-09T08:16:27;100937.13;;;12.52;57.96
74544;BME280;63016;55.030;38.710;2022-09-09T08:18:53;100944.31;;;12.50;58.30
74544;BME280;63016;55.030;38.710;2022-09-09T08:21:28;100952.00;;;12.52;58.05
74544;BME280;63016;55.030;38.710;2022-09-09T08:23:55;100946.63;;;12.53;57.71
74544;BME280;63016;55.030;38.710;2022-09-09T08:26:22;100946.31;;;12.56;57.75
74544;BME280;63016;55.030;38.710;2022-09-09T08:28:50;100948.78;;;12.58;57.95
74544;BME280;63016;55.030;38.710;2022-09-09T08:33:49;100946.66;;;12.61;58.47
74544;BME280;63016;55.030;38.710;2022-09-09T08:36:17;100952.13;;;12.68;58.02
74544;BME280;63016;55.030;38.710;2022-09-09T08:38:43;100947.25;;;12.73;57.94
74544;BME280;63016;55.030;38.710;2022-09-09T08:41:24;100949.09;;;12.81;57.71
74544;BME280;63016;55.030;38.710;2022-09-09T08:50:26;100957.81;;;13.16;58.53
74544;BME280;63016;55.030;38.710;2022-09-09T08:58:26;100955.00;;;13.43;57.56
74544;BME280;63016;55.030;38.710;2022-09-09T09:01:22;100957.16;;;13.48;57.47
74544;BME280;63016;55.030;38.710;2022-09-09T09:12:14;100958.56;;;13.34;58.25
74544;BME280;63016;55.030;38.710;2022-09-09T09:14:42;100955.59;;;13.29;57.36
74544;BME280;63016;55.030;38.710;2022-09-09T09:17:19;100956.13;;;13.32;57.06
74544;BME280;63016;55.030;38.710;2022-09-09T09:19:47;100951.91;;;13.40;57.13
74544;BME280;63016;55.030;38.710;2022-09-09T09:22:21;100951.91;;;13.48;57.11
74544;BME280;63016;55.030;38.710;2022-09-09T09:24:54;100957.50;;;13.53;56.62
74544;BME280;63016;55.030;38.710;2022-09-09T09:27:29;100957.38;;;13.54;56.41
74544;BME280;63016;55.030;38.710;2022-09-09T09:29:56;100958.53;;;13.60;56.95
74544;BME280;63016;55.030;38.710;2022-09-09T09:32:24;100960.34;;;13.68;56.69
74544;BME280;63016;55.030;38.710;2022-09-09T09:34:56;100962.31;;;13.66;55.58
74544;BME280;63016;55.030;38.710;2022-09-09T09:37:31;100963.09;;;13.58;55.24
74544;BME280;63016;55.030;38.710;2022-09-09T09:42:35;100966.53;;;13.50;57.41
74544;BME280;63016;55.030;38.710;2022-09-09T09:45:13;100957.19;;;13.56;55.86
74544;BME280;63016;55.030;38.710;2022-09-09T09:47:43;100969.66;;;13.54;55.70
74544;BME280;63016;55.030;38.710;2022-09-09T09:50:18;100969.44;;;13.47;55.84
74544;BME280;63016;55.030;38.710;2022-09-09T09:52:54;100960.94;;;13.45;55.98
74544;BME280;63016;55.030;38.710;2022-09-09T09:55:21;100962.75;;;13.45;55.67
74544;BME280;63016;55.030;38.710;2022-09-09T09:57:48;100966.19;;;13.45;55.82
74544;BME280;63016;55.030;38.710;2022-09-09T10:02:42;100963.09;;;13.58;56.09
74544;BME280;63016;55.030;38.710;2022-09-09T10:05:20;100957.56;;;13.69;56.08
74544;BME280;63016;55.030;38.710;2022-09-09T10:07:59;100959.72;;;13.82;56.41
74544;BME280;63016;55.030;38.710;2022-09-09T10:30:16;100971.94;;;14.07;56.59
74544;BME280;63016;55.030;38.710;2022-09-09T10:35:30;100983.25;;;14.24;55.75
74544;BME280;63016;55.030;38.710;2022-09-09T10:43:41;100979.50;;;14.27;54.86
74544;BME280;63016;55.030;38.710;2022-09-09T10:57:25;100976.72;;;14.36;55.24
74544;BME280;63016;55.030;38.710;2022-09-09T10:59:56;100993.94;;;14.39;54.61
74544;BME280;63016;55.030;38.710;2022-09-09T11:02:28;100976.69;;;14.28;54.73
74544;BME280;63016;55.030;38.710;2022-09-09T11:07:58;100984.06;;;14.25;55.28
74544;BME280;63016;55.030;38.710;2022-09-09T11:10:36;100976.22;;;14.33;55.34
74544;BME280;63016;55.030;38.710;2022-09-09T11:13:10;100965.53;;;14.43;55.22
74544;BME280;63016;55.030;38.710;2022-09-09T11:15:46;100982.81;;;14.53;54.56
74544;BME280;63016;55.030;38.710;2022-09-09T11:18:19;100974.94;;;14.53;54.35
74544;BME280;63016;55.030;38.710;2022-09-09T11:20:50;100981.19;;;14.60;55.20
74544;BME280;63016;55.030;38.710;2022-09-09T11:23:48;100965.06;;;14.72;55.44
74544;BME280;63016;55.030;38.710;2022-09-09T11:26:18;100982.28;;;14.82;54.13
74544;BME280;63016;55.030;38.710;2022-09-09T11:40:19;100965.19;;;14.95;54.85
74544;BME280;63016;55.030;38.710;2022-09-09T11:42:42;100965.47;;;15.08;54.51
74544;BME280;63016;55.030;38.710;2022-09-09T11:47:52;100967.06;;;15.25;53.89
74544;BME280;63016;55.030;38.710;2022-09-09T11:52:45;100976.34;;;15.05;52.91
74544;BME280;63016;55.030;38.710;2022-09-09T11:58:17;100972.44;;;14.76;54.64
74544;BME280;63016;55.030;38.710;2022-09-09T12:00:46;100967.03;;;14.70;53.37
74544;BME280;63016;55.030;38.710;2022-09-09T12:06:50;100971.31;;;14.71;53.34
74544;BME280;63016;55.030;38.710;2022-09-09T12:09:12;100956.03;;;14.74;53.10
74544;BME280;63016;55.030;38.710;2022-09-09T12:11:41;100961.59;;;14.79;53.68
74544;BME280;63016;55.030;38.710;2022-09-09T12:14:20;100952.25;;;14.85;54.26
74544;BME280;63016;55.030;38.710;2022-09-09T12:16:46;100945.31;;;14.92;53.64
74544;BME280;63016;55.030;38.710;2022-09-09T12:24:52;100956.06;;;15.22;54.38
74544;BME280;63016;55.030;38.710;2022-09-09T12:27:35;100957.56;;;15.24;53.21
74544;BME280;63016;55.030;38.710;2022-09-09T12:30:10;100961.69;;;15.19;52.71
74544;BME280;63016;55.030;38.710;2022-09-09T12:32:37;100962.97;;;15.23;55.83
74544;BME280;63016;55.030;38.710;2022-09-09T12:35:20;100965.16;;;15.11;52.43
74544;BME280;63016;55.030;38.710;2022-09-09T12:37:53;100958.94;;;15.04;53.06
74544;BME280;63016;55.030;38.710;2022-09-09T12:40:33;100961.88;;;15.01;53.00
74544;BME280;63016;55.030;38.710;2022-09-09T12:43:21;100951.75;;;14.89;53.80
74544;BME280;63016;55.030;38.710;2022-09-09T12:45:49;100953.53;;;14.89;52.74
74544;BME280;63016;55.030;38.710;2022-09-09T12:48:18;100950.56;;;14.92;53.68
74544;BME280;63016;55.030;38.710;2022-09-09T12:50:50;100947.44;;;14.97;53.33
74544;BME280;63016;55.030;38.710;2022-09-09T12:55:51;100954.97;;;15.08;52.78
74544;BME280;63016;55.030;38.710;2022-09-09T12:58:18;100941.31;;;15.12;53.00
74544;BME280;63016;55.030;38.710;2022-09-09T13:00:50;100946.56;;;15.21;53.23
74544;BME280;63016;55.030;38.710;2022-09-09T13:03:21;100946.22;;;15.24;52.69
74544;BME280;63016;55.030;38.710;2022-09-09T13:05:48;100959.50;;;15.22;52.06
74544;BME280;63016;55.030;38.710;2022-09-09T13:08:14;100955.44;;;15.11;51.89
74544;BME280;63016;55.030;38.710;2022-09-09T13:11:06;100947.94;;;15.00;53.31
74544;BME280;63016;55.030;38.710;2022-09-09T13:13:37;100951.91;;;14.88;52.36
74544;BME280;63016;55.030;38.710;2022-09-09T13:16:05;100956.34;;;14.79;52.14
74544;BME280;63016;55.030;38.710;2022-09-09T13:18:34;100963.25;;;14.72;52.33
74544;BME280;63016;55.030;38.710;2022-09-09T13:21:01;100950.63;;;14.68;52.35
74544;BME280;63016;55.030;38.710;2022-09-09T13:23:29;100954.88;;;14.69;52.98
74544;BME280;63016;55.030;38.710;2022-09-09T13:25:57;100950.13;;;14.72;52.33
74544;BME280;63016;55.030;38.710;2022-09-09T13:28:25;100953.25;;;14.76;53.16
74544;BME280;63016;55.030;38.710;2022-09-09T13:30:59;100953.22;;;14.84;52.84
74544;BME280;63016;55.030;38.710;2022-09-09T13:33:35;100949.75;;;14.91;52.79
74544;BME280;63016;55.030;38.710;2022-09-09T13:36:10;100945.63;;;14.97;52.75
74544;BME280;63016;55.030;38.710;2022-09-09T13:38:40;100949.56;;;15.01;52.83
74544;BME280;63016;55.030;38.710;2022-09-09T13:41:08;100947.44;;;15.05;51.93
74544;BME280;63016;55.030;38.710;2022-09-09T13:43:42;100950.88;;;15.05;52.02
74544;BME280;63016;55.030;38.710;2022-09-09T13:54:06;100950.41;;;14.94;51.89
74544;BME280;63016;55.030;38.710;2022-09-09T13:56:33;100959.28;;;14.93;52.30
74544;BME280;63016;55.030;38.710;2022-09-09T13:59:01;100959.44;;;14.91;51.61
74544;BME280;63016;55.030;38.710;2022-09-09T14:01:27;100959.63;;;14.81;50.82
74544;BME280;63016;55.030;38.710;2022-09-09T14:03:53;100953.41;;;14.66;51.36
74544;BME280;63016;55.030;38.710;2022-09-09T14:06:19;100949.16;;;14.57;51.42
74544;BME280;63016;55.030;38.710;2022-09-09T14:08:47;100958.84;;;14.56;51.46
74544;BME280;63016;55.030;38.710;2022-09-09T14:11:14;100953.91;;;14.53;52.18
74544;BME280;63016;55.030;38.710;2022-09-09T14:13:40;100964.41;;;14.53;52.29
74544;BME280;63016;55.030;38.710;2022-09-09T14:16:05;100950.66;;;14.51;51.96
74544;BME280;63016;55.030;38.710;2022-09-09T14:18:31;100960.34;;;14.51;52.21
74544;BME280;63016;55.030;38.710;2022-09-09T14:20:57;100961.28;;;14.50;52.00
74544;BME280;63016;55.030;38.710;2022-09-09T14:23:24;100962.13;;;14.50;52.45
74544;BME280;63016;55.030;38.710;2022-09-09T14:25:50;100963.91;;;14.50;51.83
74544;BME280;63016;55.030;38.710;2022-09-09T14:28:16;100971.97;;;14.48;51.94
74544;BME280;63016;55.030;38.710;2022-09-09T14:30:43;100974.88;;;14.45;51.90
74544;BME280;63016;55.030;38.710;2022-09-09T14:33:12;100968.00;;;14.44;51.95
74544;BME280;63016;55.030;38.710;2022-09-09T14:35:38;100966.19;;;14.45;52.47
74544;BME280;63016;55.030;38.710;2022-09-09T14:38:04;100966.38;;;14.43;51.89
74544;BME280;63016;55.030;38.710;2022-09-09T14:40:30;100963.75;;;14.43;51.75
74544;BME280;63016;55.030;38.710;2022-09-09T14:42:56;100972.59;;;14.42;51.75
74544;BME280;63016;55.030;38.710;2022-09-09T14:45:23;100964.22;;;14.38;51.79
74544;BME280;63016;55.030;38.710;2022-09-09T14:47:50;100963.91;;;14.33;51.75
74544;BME280;63016;55.030;38.710;2022-09-09T14:50:17;100963.88;;;14.25;51.81
74544;BME280;63016;55.030;38.710;2022-09-09T14:52:43;100972.56;;;14.26;52.32
74544;BME280;63016;55.030;38.710;2022-09-09T14:55:09;100974.56;;;14.24;51.90
74544;BME280;63016;55.030;38.710;2022-09-09T14:57:34;100975.88;;;14.20;52.07
74544;BME280;63016;55.030;38.710;2022-09-09T15:00:03;100975.22;;;14.18;52.39
74544;BME280;63016;55.030;38.710;2022-09-09T15:02:29;100970.94;;;14.17;52.49
74544;BME280;63016;55.030;38.710;2022-09-09T15:04:55;100978.97;;;14.15;52.38
74544;BME280;63016;55.030;38.710;2022-09-09T15:07:22;100974.06;;;14.12;52.82
74544;BME280;63016;55.030;38.710;2022-09-09T15:09:48;100969.63;;;14.12;52.96
74544;BME280;63016;55.030;38.710;2022-09-09T15:12:14;100971.59;;;14.10;53.01
74544;BME280;63016;55.030;38.710;2022-09-09T15:14:40;100972.56;;;14.09;53.29
74544;BME280;63016;55.030;38.710;2022-09-09T15:17:05;100979.13;;;14.05;53.34
74544;BME280;63016;55.030;38.710;2022-09-09T15:19:31;100981.41;;;14.00;53.52
74544;BME280;63016;55.030;38.710;2022-09-09T15:21:57;100982.06;;;13.94;53.52
74544;BME280;63016;55.030;38.710;2022-09-09T15:24:25;100985.97;;;13.90;53.59
74544;BME280;63016;55.030;38.710;2022-09-09T15:26:51;100986.13;;;13.80;53.56
74544;BME280;63016;55.030;38.710;2022-09-09T15:29:17;100990.69;;;13.70;54.08
74544;BME280;63016;55.030;38.710;2022-09-09T15:31:44;100991.13;;;13.57;53.80
74544;BME280;63016;55.030;38.710;2022-09-09T15:34:09;100993.22;;;13.46;54.17
74544;BME280;63016;55.030;38.710;2022-09-09T15:36:36;100990.03;;;13.34;53.96
74544;BME280;63016;55.030;38.710;2022-09-09T15:39:05;100988.50;;;13.23;54.07
74544;BME280;63016;55.030;38.710;2022-09-09T15:41:31;100992.50;;;13.09;54.01